sensor_id;sensor_type;location;lat;lon;timestamp;P1;durP1;ratioP1;P2;durP2;ratioP2
20794;SDS011;28087;-33.874;151.240;2023-05-27T00:01:30;5.72;;;1.25;;
20794;SDS011;28087;-33.874;151.240;2023-05-27T00:04:05;4.15;;;1.13;;
20794;SDS011;28087;-33.874;151.240;2023-05-27T00:06:40;4.28;;;1.20;;
20794;SDS011;28087;-33.874;151.240;2023-05-27T00:09:15;5.28;;;1.58;;
20794;SDS011;28087;-33.874;151.240;2023-05-27T00:11:50;5.05;;;1.40;;
20794;SDS011;28087;-33.874;151.240;2023-05-27T00:14:26;4.07;;;1.40;;
20794;SDS011;28087;-33.874;151.240;2023-05-27T00:17:01;7.10;;;1.58;;
20794;SDS011;28087;-33.874;151.240;2023-05-27T00:19:36;3.30;;;1.30;;
20794;SDS011;28087;-33.874;151.240;2023-05-27T00:22:11;4.88;;;1.50;;
20794;SDS011;28087;-33.874;151.240;2023-05-27T00:24:46;3.97;;;1.33;;
20794;SDS011;28087;-33.874;151.240;2023-05-27T00:27:20;5.57;;;1.50;;
20794;SDS011;28087;-33.874;151.240;2023-05-27T00:29:58;5.75;;;1.60;;
20794;SDS011;28087;-33.874;151.240;2023-05-27T00:32:33;4.25;;;1.30;;
20794;SDS011;28087;-33.874;151.240;2023-05-27T00:35:08;4.13;;;1.50;;
20794;SDS011;28087;-33.874;151.240;2023-05-27T00:37:45;4.55;;;1.40;;
20794;SDS011;28087;-33.874;151.240;2023-05-27T00:40:21;3.83;;;1.50;;
20794;SDS011;28087;-33.874;151.240;2023-05-27T00:42:57;6.88;;;1.33;;
20794;SDS011;28087;-33.874;151.240;2023-05-27T00:45:33;3.22;;;1.30;;
20794;SDS011;28087;-33.874;151.240;2023-05-27T00:48:09;3.92;;;1.48;;
20794;SDS011;28087;-33.874;151.240;2023-05-27T00:50:50;5.13;;;1.30;;
20794;SDS011;28087;-33.874;151.240;2023-05-27T00:53:26;6.45;;;1.35;;
20794;SDS011;28087;-33.874;151.240;2023-05-27T00:56:01;4.63;;;1.50;;
20794;SDS011;28087;-33.874;151.240;2023-05-27T00:58:36;3.95;;;1.20;;
20794;SDS011;28087;-33.874;151.240;2023-05-27T01:01:14;5.47;;;1.48;;
20794;SDS011;28087;-33.874;151.240;2023-05-27T01:03:49;5.15;;;1.50;;
20794;SDS011;28087;-33.874;151.240;2023-05-27T01:06:25;6.95;;;1.50;;
20794;SDS011;28087;-33.874;151.240;2023-05-27T01:09:03;4.38;;;1.42;;
20794;SDS011;28087;-33.874;151.240;2023-05-27T01:11:42;5.55;;;1.45;;
20794;SDS011;28087;-33.874;151.240;2023-05-27T01:14:17;5.82;;;1.50;;
20794;SDS011;28087;-33.874;151.240;2023-05-27T01:16:55;6.25;;;1.55;;
20794;SDS011;28087;-33.874;151.240;2023-05-27T01:19:33;5.53;;;1.40;;
20794;SDS011;28087;-33.874;151.240;2023-05-27T01:22:12;5.72;;;1.55;;
20794;SDS011;28087;-33.874;151.240;2023-05-27T01:24:49;4.38;;;1.60;;
20794;SDS011;28087;-33.874;151.240;2023-05-27T01:27:24;3.85;;;1.38;;
20794;SDS011;28087;-33.874;151.240;2023-05-27T01:30:02;5.35;;;1.40;;
20794;SDS011;28087;-33.874;151.240;2023-05-27T01:32:39;9.60;;;1.50;;
20794;SDS011;28087;-33.874;151.240;2023-05-27T01:35:16;4.65;;;1.40;;
20794;SDS011;28087;-33.874;151.240;2023-05-27T01:37:52;4.68;;;1.30;;
20794;SDS011;28087;-33.874;151.240;2023-05-27T01:40:30;3.85;;;1.30;;
20794;SDS011;28087;-33.874;151.240;2023-05-27T01:43:06;3.95;;;1.27;;
20794;SDS011;28087;-33.874;151.240;2023-05-27T01:45:41;5.10;;;1.45;;
20794;SDS011;28087;-33.874;151.240;2023-05-27T01:48:16;8.18;;;1.50;;
20794;SDS011;28087;-33.874;151.240;2023-05-27T01:50:51;4.70;;;1.50;;
20794;SDS011;28087;-33.874;151.240;2023-05-27T01:53:27;4.68;;;1.42;;
20794;SDS011;28087;-33.874;151.240;2023-05-27T01:56:04;5.18;;;1.60;;
20794;SDS011;28087;-33.874;151.240;2023-05-27T01:58:40;4.40;;;1.17;;
20794;SDS011;28087;-33.874;151.240;2023-05-27T02:01:14;3.17;;;1.05;;
20794;SDS011;28087;-33.874;151.240;2023-05-27T02:03:52;3.42;;;1.25;;
20794;SDS011;28087;-33.874;151.240;2023-05-27T02:06:27;2.70;;;1.15;;
20794;SDS011;28087;-33.874;151.240;2023-05-27T02:09:03;5.75;;;1.20;;
20794;SDS011;28087;-33.874;151.240;2023-05-27T02:11:40;7.03;;;1.40;;
20794;SDS011;28087;-33.874;151.240;2023-05-27T02:14:17;6.35;;;1.35;;
20794;SDS011;28087;-33.874;151.240;2023-05-27T02:16:51;4.70;;;1.20;;
20794;SDS011;28087;-33.874;151.240;2023-05-27T02:19:29;5.05;;;1.25;;
20794;SDS011;28087;-33.874;151.240;2023-05-27T02:22:08;5.03;;;1.40;;
20794;SDS011;28087;-33.874;151.240;2023-05-27T02:24:43;3.97;;;1.30;;
20794;SDS011;28087;-33.874;151.240;2023-05-27T02:27:19;3.65;;;1.40;;
20794;SDS011;28087;-33.874;151.240;2023-05-27T02:29:54;3.53;;;1.25;;
20794;SDS011;28087;-33.874;151.240;2023-05-27T02:32:29;4.95;;;1.40;;
20794;SDS011;28087;-33.874;151.240;2023-05-27T02:35:05;7.05;;;1.30;;
20794;SDS011;28087;-33.874;151.240;2023-05-27T02:37:41;2.55;;;1.00;;
20794;SDS011;28087;-33.874;151.240;2023-05-27T02:40:23;5.47;;;1.38;;
20794;SDS011;28087;-33.874;151.240;2023-05-27T02:42:59;3.00;;;1.20;;
20794;SDS011;28087;-33.874;151.240;2023-05-27T02:45:34;3.33;;;1.20;;
20794;SDS011;28087;-33.874;151.240;2023-05-27T02:48:09;4.40;;;1.20;;
20794;SDS011;28087;-33.874;151.240;2023-05-27T02:50:44;3.95;;;1.23;;
20794;SDS011;28087;-33.874;151.240;2023-05-27T02:53:18;4.90;;;1.27;;
20794;SDS011;28087;-33.874;151.240;2023-05-27T02:55:54;4.03;;;1.20;;
20794;SDS011;28087;-33.874;151.240;2023-05-27T02:58:30;3.13;;;1.08;;
20794;SDS011;28087;-33.874;151.240;2023-05-27T03:01:05;3.10;;;1.20;;
20794;SDS011;28087;-33.874;151.240;2023-05-27T03:03:39;4.13;;;1.10;;
20794;SDS011;28087;-33.874;151.240;2023-05-27T03:06:16;3.05;;;1.10;;
20794;SDS011;28087;-33.874;151.240;2023-05-27T03:08:50;2.47;;;1.08;;
20794;SDS011;28087;-33.874;151.240;2023-05-27T03:11:27;3.17;;;0.80;;
20794;SDS011;28087;-33.874;151.240;2023-05-27T03:14:03;9.77;;;1.20;;
20794;SDS011;28087;-33.874;151.240;2023-05-27T03:16:38;3.28;;;0.75;;
20794;SDS011;28087;-33.874;151.240;2023-05-27T03:19:13;6.00;;;1.13;;
20794;SDS011;28087;-33.874;151.240;2023-05-27T03:21:49;3.20;;;0.95;;
20794;SDS011;28087;-33.874;151.240;2023-05-27T03:24:26;5.53;;;0.90;;
20794;SDS011;28087;-33.874;151.240;2023-05-27T03:27:01;3.17;;;0.90;;
20794;SDS011;28087;-33.874;151.240;2023-05-27T03:29:41;3.95;;;1.05;;
20794;SDS011;28087;-33.874;151.240;2023-05-27T03:32:16;2.80;;;1.00;;
20794;SDS011;28087;-33.874;151.240;2023-05-27T03:34:51;3.25;;;1.20;;
20794;SDS011;28087;-33.874;151.240;2023-05-27T03:37:27;2.75;;;0.80;;
20794;SDS011;28087;-33.874;151.240;2023-05-27T03:40:05;3.88;;;1.10;;
20794;SDS011;28087;-33.874;151.240;2023-05-27T03:42:40;2.70;;;0.90;;
20794;SDS011;28087;-33.874;151.240;2023-05-27T03:45:21;4.90;;;1.10;;
20794;SDS011;28087;-33.874;151.240;2023-05-27T03:47:56;4.57;;;0.90;;
20794;SDS011;28087;-33.874;151.240;2023-05-27T03:50:32;2.67;;;0.85;;
20794;SDS011;28087;-33.874;151.240;2023-05-27T03:53:09;2.03;;;0.90;;
20794;SDS011;28087;-33.874;151.240;2023-05-27T03:55:43;2.50;;;0.80;;
20794;SDS011;28087;-33.874;151.240;2023-05-27T03:58:19;4.28;;;1.00;;
20794;SDS011;28087;-33.874;151.240;2023-05-27T04:00:55;2.65;;;0.88;;
20794;SDS011;28087;-33.874;151.240;2023-05-27T04:03:30;3.70;;;1.10;;
20794;SDS011;28087;-33.874;151.240;2023-05-27T04:06:04;3.22;;;1.00;;
20794;SDS011;28087;-33.874;151.240;2023-05-27T04:08:39;3.95;;;0.95;;
20794;SDS011;28087;-33.874;151.240;2023-05-27T04:11:14;3.38;;;1.08;;
20794;SDS011;28087;-33.874;151.240;2023-05-27T04:13:52;4.45;;;1.10;;
20794;SDS011;28087;-33.874;151.240;2023-05-27T04:16:28;3.30;;;1.00;;
20794;SDS011;28087;-33.874;151.240;2023-05-27T04:19:05;3.40;;;0.98;;
20794;SDS011;28087;-33.874;151.240;2023-05-27T04:21:39;3.25;;;1.02;;
20794;SDS011;28087;-33.874;151.240;2023-05-27T04:24:14;4.30;;;1.20;;
20794;SDS011;28087;-33.874;151.240;2023-05-27T04:26:49;2.97;;;1.00;;
20794;SDS011;28087;-33.874;151.240;2023-05-27T04:29:24;3.25;;;1.30;;
20794;SDS011;28087;-33.874;151.240;2023-05-27T04:32:01;2.40;;;1.10;;
20794;SDS011;28087;-33.874;151.240;2023-05-27T04:34:37;2.72;;;1.05;;
20794;SDS011;28087;-33.874;151.240;2023-05-27T04:37:14;4.13;;;1.27;;
20794;SDS011;28087;-33.874;151.240;2023-05-27T04:39:51;3.08;;;1.20;;
20794;SDS011;28087;-33.874;151.240;2023-05-27T04:42:29;3.13;;;1.20;;
20794;SDS011;28087;-33.874;151.240;2023-05-27T04:45:04;5.05;;;1.05;;
20794;SDS011;28087;-33.874;151.240;2023-05-27T04:47:41;3.53;;;1.10;;
20794;SDS011;28087;-33.874;151.240;2023-05-27T04:50:16;3.03;;;1.02;;
20794;SDS011;28087;-33.874;151.240;2023-05-27T04:52:51;3.95;;;1.13;;
20794;SDS011;28087;-33.874;151.240;2023-05-27T04:55:28;3.70;;;0.90;;
20794;SDS011;28087;-33.874;151.240;2023-05-27T04:58:03;4.28;;;1.20;;
20794;SDS011;28087;-33.874;151.240;2023-05-27T05:00:40;3.22;;;0.93;;
20794;SDS011;28087;-33.874;151.240;2023-05-27T05:03:26;4.97;;;1.25;;
20794;SDS011;28087;-33.874;151.240;2023-05-27T05:06:21;2.88;;;1.17;;
20794;SDS011;28087;-33.874;151.240;2023-05-27T05:08:56;2.65;;;1.10;;
20794;SDS011;28087;-33.874;151.240;2023-05-27T05:11:32;3.20;;;0.95;;
20794;SDS011;28087;-33.874;151.240;2023-05-27T05:14:08;2.83;;;1.02;;
20794;SDS011;28087;-33.874;151.240;2023-05-27T05:16:45;3.67;;;0.95;;
20794;SDS011;28087;-33.874;151.240;2023-05-27T05:19:22;4.30;;;1.10;;
20794;SDS011;28087;-33.874;151.240;2023-05-27T05:21:58;4.15;;;1.20;;
20794;SDS011;28087;-33.874;151.240;2023-05-27T05:24:33;2.83;;;1.08;;
20794;SDS011;28087;-33.874;151.240;2023-05-27T05:27:11;2.78;;;1.05;;
20794;SDS011;28087;-33.874;151.240;2023-05-27T05:29:47;2.72;;;1.08;;
20794;SDS011;28087;-33.874;151.240;2023-05-27T05:32:23;2.97;;;1.20;;
20794;SDS011;28087;-33.874;151.240;2023-05-27T05:35:00;3.25;;;1.10;;
20794;SDS011;28087;-33.874;151.240;2023-05-27T05:37:36;3.65;;;1.00;;
20794;SDS011;28087;-33.874;151.240;2023-05-27T05:40:10;2.45;;;0.90;;
20794;SDS011;28087;-33.874;151.240;2023-05-27T05:43:00;2.95;;;1.20;;
20794;SDS011;28087;-33.874;151.240;2023-05-27T05:45:34;1.98;;;0.80;;
20794;SDS011;28087;-33.874;151.240;2023-05-27T05:48:09;2.90;;;0.90;;
20794;SDS011;28087;-33.874;151.240;2023-05-27T05:50:46;3.25;;;1.08;;
20794;SDS011;28087;-33.874;151.240;2023-05-27T05:53:23;4.00;;;0.90;;
20794;SDS011;28087;-33.874;151.240;2023-05-27T05:55:57;2.90;;;0.80;;
20794;SDS011;28087;-33.874;151.240;2023-05-27T05:58:32;3.40;;;0.80;;
20794;SDS011;28087;-33.874;151.240;2023-05-27T06:01:08;2.53;;;0.90;;
20794;SDS011;28087;-33.874;151.240;2023-05-27T06:03:43;2.00;;;0.80;;
20794;SDS011;28087;-33.874;151.240;2023-05-27T06:06:35;2.97;;;0.90;;
20794;SDS011;28087;-33.874;151.240;2023-05-27T06:09:22;2.75;;;0.70;;
20794;SDS011;28087;-33.874;151.240;2023-05-27T06:12:02;2.10;;;0.80;;
20794;SDS011;28087;-33.874;151.240;2023-05-27T06:14:44;1.67;;;0.80;;
20794;SDS011;28087;-33.874;151.240;2023-05-27T06:17:32;2.60;;;0.70;;
20794;SDS011;28087;-33.874;151.240;2023-05-27T06:20:07;3.35;;;0.80;;
20794;SDS011;28087;-33.874;151.240;2023-05-27T06:22:44;3.40;;;0.82;;
20794;SDS011;28087;-33.874;151.240;2023-05-27T06:25:42;2.53;;;0.70;;
20794;SDS011;28087;-33.874;151.240;2023-05-27T06:28:17;3.17;;;0.80;;
20794;SDS011;28087;-33.874;151.240;2023-05-27T06:30:51;3.15;;;0.80;;
20794;SDS011;28087;-33.874;151.240;2023-05-27T06:33:26;2.08;;;0.80;;
20794;SDS011;28087;-33.874;151.240;2023-05-27T06:36:02;1.83;;;0.88;;
20794;SDS011;28087;-33.874;151.240;2023-05-27T06:38:40;2.88;;;0.90;;
20794;SDS011;28087;-33.874;151.240;2023-05-27T06:41:15;1.63;;;0.65;;
20794;SDS011;28087;-33.874;151.240;2023-05-27T06:44:09;2.33;;;0.68;;
20794;SDS011;28087;-33.874;151.240;2023-05-27T06:46:59;2.63;;;0.77;;
20794;SDS011;28087;-33.874;151.240;2023-05-27T06:49:35;2.38;;;0.70;;
20794;SDS011;28087;-33.874;151.240;2023-05-27T06:52:10;3.17;;;0.80;;
20794;SDS011;28087;-33.874;151.240;2023-05-27T06:55:02;2.63;;;0.80;;
20794;SDS011;28087;-33.874;151.240;2023-05-27T06:57:55;1.95;;;0.80;;
20794;SDS011;28087;-33.874;151.240;2023-05-27T07:00:45;2.22;;;1.00;;
20794;SDS011;28087;-33.874;151.240;2023-05-27T07:03:30;2.85;;;0.90;;
20794;SDS011;28087;-33.874;151.240;2023-05-27T07:06:07;3.97;;;1.13;;
20794;SDS011;28087;-33.874;151.240;2023-05-27T07:08:47;2.65;;;1.00;;
20794;SDS011;28087;-33.874;151.240;2023-05-27T07:11:27;2.53;;;1.00;;
20794;SDS011;28087;-33.874;151.240;2023-05-27T07:14:06;3.25;;;1.30;;
20794;SDS011;28087;-33.874;151.240;2023-05-27T07:16:43;2.45;;;1.10;;
20794;SDS011;28087;-33.874;151.240;2023-05-27T07:19:19;3.10;;;1.02;;
20794;SDS011;28087;-33.874;151.240;2023-05-27T07:21:58;2.15;;;1.00;;
20794;SDS011;28087;-33.874;151.240;2023-05-27T07:24:33;1.67;;;0.98;;
20794;SDS011;28087;-33.874;151.240;2023-05-27T07:27:11;2.47;;;1.13;;
20794;SDS011;28087;-33.874;151.240;2023-05-27T07:29:54;2.50;;;1.02;;
20794;SDS011;28087;-33.874;151.240;2023-05-27T07:32:45;2.25;;;1.00;;
20794;SDS011;28087;-33.874;151.240;2023-05-27T07:35:20;2.42;;;1.02;;
20794;SDS011;28087;-33.874;151.240;2023-05-27T07:37:55;2.92;;;1.10;;
20794;SDS011;28087;-33.874;151.240;2023-05-27T07:40:30;2.30;;;0.85;;
20794;SDS011;28087;-33.874;151.240;2023-05-27T07:43:07;2.95;;;0.93;;
20794;SDS011;28087;-33.874;151.240;2023-05-27T07:45:42;2.10;;;0.90;;
20794;SDS011;28087;-33.874;151.240;2023-05-27T07:48:18;2.30;;;0.90;;
20794;SDS011;28087;-33.874;151.240;2023-05-27T07:50:57;1.92;;;0.90;;
20794;SDS011;28087;-33.874;151.240;2023-05-27T07:53:32;2.78;;;1.05;;
20794;SDS011;28087;-33.874;151.240;2023-05-27T07:56:07;3.47;;;1.00;;
20794;SDS011;28087;-33.874;151.240;2023-05-27T07:58:44;2.40;;;1.00;;
20794;SDS011;28087;-33.874;151.240;2023-05-27T08:01:21;2.17;;;1.00;;
20794;SDS011;28087;-33.874;151.240;2023-05-27T08:03:55;3.13;;;1.23;;
20794;SDS011;28087;-33.874;151.240;2023-05-27T08:07:04;4.22;;;1.40;;
20794;SDS011;28087;-33.874;151.240;2023-05-27T08:10:00;3.20;;;1.30;;
20794;SDS011;28087;-33.874;151.240;2023-05-27T08:12:53;6.32;;;1.75;;
20794;SDS011;28087;-33.874;151.240;2023-05-27T08:15:54;3.63;;;1.50;;
20794;SDS011;28087;-33.874;151.240;2023-05-27T08:18:43;4.20;;;1.70;;
20794;SDS011;28087;-33.874;151.240;2023-05-27T08:21:26;3.58;;;1.67;;
20794;SDS011;28087;-33.874;151.240;2023-05-27T08:24:24;3.08;;;1.60;;
20794;SDS011;28087;-33.874;151.240;2023-05-27T08:27:14;3.80;;;1.45;;
20794;SDS011;28087;-33.874;151.240;2023-05-27T08:30:05;3.92;;;1.80;;
20794;SDS011;28087;-33.874;151.240;2023-05-27T08:33:14;4.43;;;1.60;;
20794;SDS011;28087;-33.874;151.240;2023-05-27T08:35:49;3.53;;;1.45;;
20794;SDS011;28087;-33.874;151.240;2023-05-27T08:38:24;3.58;;;1.55;;
20794;SDS011;28087;-33.874;151.240;2023-05-27T08:41:21;4.93;;;1.63;;
20794;SDS011;28087;-33.874;151.240;2023-05-27T08:43:58;4.10;;;1.80;;
20794;SDS011;28087;-33.874;151.240;2023-05-27T08:46:58;4.80;;;2.00;;
20794;SDS011;28087;-33.874;151.240;2023-05-27T08:49:37;4.53;;;1.63;;
20794;SDS011;28087;-33.874;151.240;2023-05-27T08:52:12;4.15;;;1.90;;
20794;SDS011;28087;-33.874;151.240;2023-05-27T08:54:49;4.88;;;2.33;;
20794;SDS011;28087;-33.874;151.240;2023-05-27T08:57:25;4.28;;;2.08;;
20794;SDS011;28087;-33.874;151.240;2023-05-27T09:00:02;4.47;;;2.05;;
20794;SDS011;28087;-33.874;151.240;2023-05-27T09:02:44;4.00;;;2.10;;
20794;SDS011;28087;-33.874;151.240;2023-05-27T09:05:24;3.33;;;1.70;;
20794;SDS011;28087;-33.874;151.240;2023-05-27T09:07:58;3.88;;;1.80;;
20794;SDS011;28087;-33.874;151.240;2023-05-27T09:10:36;3.78;;;1.67;;
20794;SDS011;28087;-33.874;151.240;2023-05-27T09:13:12;4.65;;;1.90;;
20794;SDS011;28087;-33.874;151.240;2023-05-27T09:15:47;4.35;;;1.95;;
20794;SDS011;28087;-33.874;151.240;2023-05-27T09:18:25;3.75;;;1.73;;
20794;SDS011;28087;-33.874;151.240;2023-05-27T09:21:01;6.50;;;2.20;;
20794;SDS011;28087;-33.874;151.240;2023-05-27T09:23:37;4.50;;;2.38;;
20794;SDS011;28087;-33.874;151.240;2023-05-27T09:26:12;6.70;;;2.45;;
20794;SDS011;28087;-33.874;151.240;2023-05-27T09:28:47;4.88;;;2.50;;
20794;SDS011;28087;-33.874;151.240;2023-05-27T09:31:22;5.82;;;2.20;;
20794;SDS011;28087;-33.874;151.240;2023-05-27T09:34:08;5.95;;;2.22;;
20794;SDS011;28087;-33.874;151.240;2023-05-27T09:36:46;5.18;;;2.10;;
20794;SDS011;28087;-33.874;151.240;2023-05-27T09:39:22;4.78;;;2.30;;
20794;SDS011;28087;-33.874;151.240;2023-05-27T09:41:56;4.55;;;2.08;;
20794;SDS011;28087;-33.874;151.240;2023-05-27T09:44:34;5.40;;;2.40;;
20794;SDS011;28087;-33.874;151.240;2023-05-27T09:47:11;4.70;;;2.33;;
20794;SDS011;28087;-33.874;151.240;2023-05-27T09:49:46;4.85;;;2.30;;
20794;SDS011;28087;-33.874;151.240;2023-05-27T09:52:25;4.35;;;2.03;;
20794;SDS011;28087;-33.874;151.240;2023-05-27T09:55:02;5.97;;;2.30;;
20794;SDS011;28087;-33.874;151.240;2023-05-27T09:57:41;4.43;;;2.20;;
20794;SDS011;28087;-33.874;151.240;2023-05-27T10:00:16;4.63;;;2.30;;
20794;SDS011;28087;-33.874;151.240;2023-05-27T10:02:53;5.15;;;2.10;;
20794;SDS011;28087;-33.874;151.240;2023-05-27T10:05:30;4.10;;;2.05;;
20794;SDS011;28087;-33.874;151.240;2023-05-27T10:08:08;5.32;;;2.38;;
20794;SDS011;28087;-33.874;151.240;2023-05-27T10:10:54;4.72;;;2.47;;
20794;SDS011;28087;-33.874;151.240;2023-05-27T10:13:29;5.32;;;2.47;;
20794;SDS011;28087;-33.874;151.240;2023-05-27T10:16:04;4.55;;;2.13;;
20794;SDS011;28087;-33.874;151.240;2023-05-27T10:18:41;5.45;;;2.28;;
20794;SDS011;28087;-33.874;151.240;2023-05-27T10:21:19;4.43;;;2.20;;
20794;SDS011;28087;-33.874;151.240;2023-05-27T10:23:58;5.82;;;2.55;;
20794;SDS011;28087;-33.874;151.240;2023-05-27T10:26:33;6.00;;;2.65;;
20794;SDS011;28087;-33.874;151.240;2023-05-27T10:29:09;5.63;;;2.60;;
20794;SDS011;28087;-33.874;151.240;2023-05-27T10:31:44;5.55;;;2.80;;
20794;SDS011;28087;-33.874;151.240;2023-05-27T10:34:21;5.57;;;2.90;;
20794;SDS011;28087;-33.874;151.240;2023-05-27T10:36:59;6.63;;;3.10;;
20794;SDS011;28087;-33.874;151.240;2023-05-27T10:39:36;6.05;;;3.35;;
20794;SDS011;28087;-33.874;151.240;2023-05-27T10:42:11;6.40;;;3.15;;
20794;SDS011;28087;-33.874;151.240;2023-05-27T10:45:03;5.72;;;3.00;;
20794;SDS011;28087;-33.874;151.240;2023-05-27T10:47:38;5.63;;;3.10;;
20794;SDS011;28087;-33.874;151.240;2023-05-27T10:50:13;6.25;;;2.95;;
20794;SDS011;28087;-33.874;151.240;2023-05-27T10:52:48;6.57;;;3.15;;
20794;SDS011;28087;-33.874;151.240;2023-05-27T10:55:24;5.70;;;3.17;;
20794;SDS011;28087;-33.874;151.240;2023-05-27T10:58:00;6.53;;;3.15;;
20794;SDS011;28087;-33.874;151.240;2023-05-27T11:00:37;7.88;;;3.30;;
20794;SDS011;28087;-33.874;151.240;2023-05-27T11:03:22;5.80;;;2.78;;
20794;SDS011;28087;-33.874;151.240;2023-05-27T11:05:58;6.75;;;2.95;;
20794;SDS011;28087;-33.874;151.240;2023-05-27T11:08:33;6.70;;;3.08;;
20794;SDS011;28087;-33.874;151.240;2023-05-27T11:11:12;5.90;;;3.00;;
20794;SDS011;28087;-33.874;151.240;2023-05-27T11:13:47;5.35;;;2.83;;
20794;SDS011;28087;-33.874;151.240;2023-05-27T11:16:22;5.60;;;2.90;;
20794;SDS011;28087;-33.874;151.240;2023-05-27T11:18:57;6.22;;;2.80;;
20794;SDS011;28087;-33.874;151.240;2023-05-27T11:21:32;8.30;;;3.08;;
20794;SDS011;28087;-33.874;151.240;2023-05-27T11:24:13;5.80;;;2.95;;
20794;SDS011;28087;-33.874;151.240;2023-05-27T11:26:50;6.45;;;3.00;;
20794;SDS011;28087;-33.874;151.240;2023-05-27T11:29:25;6.60;;;2.83;;
20794;SDS011;28087;-33.874;151.240;2023-05-27T11:32:02;7.50;;;2.63;;
20794;SDS011;28087;-33.874;151.240;2023-05-27T11:34:38;5.90;;;2.75;;
20794;SDS011;28087;-33.874;151.240;2023-05-27T11:37:12;5.53;;;2.70;;
20794;SDS011;28087;-33.874;151.240;2023-05-27T11:39:51;4.60;;;2.50;;
20794;SDS011;28087;-33.874;151.240;2023-05-27T11:42:28;4.82;;;2.42;;
20794;SDS011;28087;-33.874;151.240;2023-05-27T11:45:03;4.75;;;2.40;;
20794;SDS011;28087;-33.874;151.240;2023-05-27T11:47:41;6.25;;;2.63;;
20794;SDS011;28087;-33.874;151.240;2023-05-27T11:50:17;6.75;;;2.92;;
20794;SDS011;28087;-33.874;151.240;2023-05-27T11:52:52;6.47;;;2.80;;
20794;SDS011;28087;-33.874;151.240;2023-05-27T11:55:29;4.50;;;2.53;;
20794;SDS011;28087;-33.874;151.240;2023-05-27T11:58:06;5.45;;;2.78;;
20794;SDS011;28087;-33.874;151.240;2023-05-27T12:00:46;5.20;;;2.75;;
20794;SDS011;28087;-33.874;151.240;2023-05-27T12:03:25;5.55;;;2.72;;
20794;SDS011;28087;-33.874;151.240;2023-05-27T12:06:03;6.13;;;2.97;;
20794;SDS011;28087;-33.874;151.240;2023-05-27T12:08:41;5.57;;;2.72;;
20794;SDS011;28087;-33.874;151.240;2023-05-27T12:11:17;7.40;;;2.65;;
20794;SDS011;28087;-33.874;151.240;2023-05-27T12:13:55;5.22;;;2.85;;
20794;SDS011;28087;-33.874;151.240;2023-05-27T12:16:29;6.53;;;2.90;;
20794;SDS011;28087;-33.874;151.240;2023-05-27T12:19:04;6.80;;;3.05;;
20794;SDS011;28087;-33.874;151.240;2023-05-27T12:21:40;5.65;;;2.72;;
20794;SDS011;28087;-33.874;151.240;2023-05-27T12:24:17;5.93;;;2.90;;
20794;SDS011;28087;-33.874;151.240;2023-05-27T12:26:52;6.20;;;2.90;;
20794;SDS011;28087;-33.874;151.240;2023-05-27T12:29:28;5.38;;;2.78;;
20794;SDS011;28087;-33.874;151.240;2023-05-27T12:32:05;6.40;;;2.83;;
20794;SDS011;28087;-33.874;151.240;2023-05-27T12:34:39;6.70;;;2.67;;
20794;SDS011;28087;-33.874;151.240;2023-05-27T12:37:15;6.28;;;2.47;;
20794;SDS011;28087;-33.874;151.240;2023-05-27T12:39:49;5.63;;;2.60;;
20794;SDS011;28087;-33.874;151.240;2023-05-27T12:42:24;6.25;;;2.63;;
20794;SDS011;28087;-33.874;151.240;2023-05-27T12:45:01;5.20;;;2.33;;
20794;SDS011;28087;-33.874;151.240;2023-05-27T12:47:36;5.13;;;2.30;;
20794;SDS011;28087;-33.874;151.240;2023-05-27T12:50:11;7.38;;;2.60;;
20794;SDS011;28087;-33.874;151.240;2023-05-27T12:52:46;5.30;;;2.45;;
20794;SDS011;28087;-33.874;151.240;2023-05-27T12:55:22;4.90;;;2.50;;
20794;SDS011;28087;-33.874;151.240;2023-05-27T12:57:58;5.05;;;2.15;;
20794;SDS011;28087;-33.874;151.240;2023-05-27T13:00:34;4.50;;;2.03;;
20794;SDS011;28087;-33.874;151.240;2023-05-27T13:03:11;3.58;;;2.00;;
20794;SDS011;28087;-33.874;151.240;2023-05-27T13:05:47;5.93;;;2.50;;
20794;SDS011;28087;-33.874;151.240;2023-05-27T13:08:22;4.28;;;2.25;;
20794;SDS011;28087;-33.874;151.240;2023-05-27T13:10:56;4.43;;;2.10;;
20794;SDS011;28087;-33.874;151.240;2023-05-27T13:13:32;4.22;;;2.15;;
20794;SDS011;28087;-33.874;151.240;2023-05-27T13:16:12;5.75;;;2.15;;
20794;SDS011;28087;-33.874;151.240;2023-05-27T13:18:47;5.40;;;2.50;;
20794;SDS011;28087;-33.874;151.240;2023-05-27T13:21:22;5.70;;;2.55;;
20794;SDS011;28087;-33.874;151.240;2023-05-27T13:23:57;6.43;;;2.40;;
20794;SDS011;28087;-33.874;151.240;2023-05-27T13:26:32;6.57;;;2.40;;
20794;SDS011;28087;-33.874;151.240;2023-05-27T13:29:06;5.30;;;2.38;;
20794;SDS011;28087;-33.874;151.240;2023-05-27T13:31:43;5.18;;;2.30;;
20794;SDS011;28087;-33.874;151.240;2023-05-27T13:34:18;4.82;;;2.50;;
20794;SDS011;28087;-33.874;151.240;2023-05-27T13:36:53;4.70;;;2.20;;
20794;SDS011;28087;-33.874;151.240;2023-05-27T13:39:28;5.38;;;2.05;;
20794;SDS011;28087;-33.874;151.240;2023-05-27T13:42:02;5.45;;;2.20;;
20794;SDS011;28087;-33.874;151.240;2023-05-27T13:44:37;5.25;;;2.15;;
20794;SDS011;28087;-33.874;151.240;2023-05-27T13:47:16;5.15;;;2.17;;
20794;SDS011;28087;-33.874;151.240;2023-05-27T13:49:51;4.65;;;2.20;;
20794;SDS011;28087;-33.874;151.240;2023-05-27T13:52:26;4.15;;;1.95;;
20794;SDS011;28087;-33.874;151.240;2023-05-27T13:55:01;4.70;;;2.00;;
20794;SDS011;28087;-33.874;151.240;2023-05-27T13:57:36;4.82;;;1.80;;
20794;SDS011;28087;-33.874;151.240;2023-05-27T14:00:12;3.70;;;1.67;;
20794;SDS011;28087;-33.874;151.240;2023-05-27T14:02:49;3.90;;;1.52;;
20794;SDS011;28087;-33.874;151.240;2023-05-27T14:05:25;3.85;;;1.60;;
20794;SDS011;28087;-33.874;151.240;2023-05-27T14:08:00;3.40;;;1.50;;
20794;SDS011;28087;-33.874;151.240;2023-05-27T14:10:35;4.22;;;1.75;;
20794;SDS011;28087;-33.874;151.240;2023-05-27T14:13:10;3.38;;;1.55;;
20794;SDS011;28087;-33.874;151.240;2023-05-27T14:15:45;3.85;;;1.70;;
20794;SDS011;28087;-33.874;151.240;2023-05-27T14:18:23;3.72;;;1.80;;
20794;SDS011;28087;-33.874;151.240;2023-05-27T14:20:58;4.38;;;1.75;;
20794;SDS011;28087;-33.874;151.240;2023-05-27T14:23:32;4.18;;;1.50;;
20794;SDS011;28087;-33.874;151.240;2023-05-27T14:26:10;3.60;;;1.60;;
20794;SDS011;28087;-33.874;151.240;2023-05-27T14:28:46;3.17;;;1.42;;
20794;SDS011;28087;-33.874;151.240;2023-05-27T14:31:20;3.95;;;1.30;;
20794;SDS011;28087;-33.874;151.240;2023-05-27T14:33:57;2.75;;;1.20;;
20794;SDS011;28087;-33.874;151.240;2023-05-27T14:36:32;3.85;;;1.30;;
20794;SDS011;28087;-33.874;151.240;2023-05-27T14:39:08;3.35;;;1.30;;
20794;SDS011;28087;-33.874;151.240;2023-05-27T14:41:42;3.90;;;1.30;;
20794;SDS011;28087;-33.874;151.240;2023-05-27T14:44:17;3.03;;;1.10;;
20794;SDS011;28087;-33.874;151.240;2023-05-27T14:46:52;3.13;;;1.20;;
20794;SDS011;28087;-33.874;151.240;2023-05-27T14:49:29;2.30;;;1.08;;
20794;SDS011;28087;-33.874;151.240;2023-05-27T14:52:07;2.95;;;1.00;;
20794;SDS011;28087;-33.874;151.240;2023-05-27T14:54:41;4.20;;;1.30;;
20794;SDS011;28087;-33.874;151.240;2023-05-27T14:57:16;3.67;;;1.10;;
20794;SDS011;28087;-33.874;151.240;2023-05-27T14:59:51;3.72;;;1.10;;
20794;SDS011;28087;-33.874;151.240;2023-05-27T15:02:26;2.80;;;1.00;;
20794;SDS011;28087;-33.874;151.240;2023-05-27T15:05:04;2.70;;;1.08;;
20794;SDS011;28087;-33.874;151.240;2023-05-27T15:07:40;2.55;;;1.02;;